Terminal Aerodrome Forecast
Issued by NWS

Home | Current Version | Previous Version | Text Only | Print | Product List | Glossary On
Versions: 1 2 3 4 5 6 7 8 9 10 11 12 13 14 15 16
000
FTUS46 KSEW 290500
TAFOLM
TAF
KOLM 290536Z 2906/3006 20005KT P6SM BKN250
     FM290900 20003KT P6SM OVC020
     FM291300 19003KT 5SM BR OVC005
     FM291700 22004KT P6SM BKN010 OVC020
     FM292100 23006KT P6SM BKN020 OVC030=

USA.gov is the U.S. government's official web portal to all federal, state and local government web resources and services.